Terminal Aerodrome Forecast
Issued by NWS Upton, NY

Current Version | Previous Version | Text Only | Print | Product List | Glossary On
Versions: 1 2 3 4 5 6 7 8 9 10 11 12 13 14 15 16 17 18 19 20 21 22 23 24 25 26 27 28
000 FTUS41 KOKX 021400 AAB TAFISP TAF AMD KISP 021433Z 0215/0312 02012KT P6SM OVC015 TEMPO 0215/0216 3SM -DZ BR FM021800 02012KT P6SM BKN025 FM022100 03010KT P6SM SCT025 BKN035 FM022300 04007KT P6SM SCT025 SCT080 FM030100 04005KT P6SM SCT025=

USA.gov is the U.S. government's official web portal to all federal, state and local government web resources and services.